John James Audubon — WDE8037 — position and weather

sailwx.info

Track history (hours):
 
Tides and Currents Weather Stations Pressure Air Temp Water Temp Dewpoint Dewpoint Depression Visibility Wind Speed Wind Dir Waves Ship Positions

John James Audubon

Owner: Statue Cruises, Jersey City, NJ. More information available from US FCC via Universal Licensing System and Coast Guard Vessel Documentation Center.

Last reported at 2016-Sep-26 20:33 UTC. Time now 2016-Sep-27 05:21 UTC.
Position N 40°42' W 074°00'.

Length 37 m.

Type: Ship. MMSI: 367400770.

Date/timePositionNaut miles runAvg speedWind from/ knotsBaromVisibWave heightAir tempDewpointWater temp
2016-Sep-26 20:33N 40°42' W 074°00'0 0.0
2016-Sep-26 19:33N 40°42' W 074°00'1 0.3
2016-Sep-26 15:33N 40°41' W 074°02'1 0.7
2016-Sep-26 13:33N 40°42' W 074°00'2 0.1
2016-Sep-25 21:33N 40°41' W 074°02'2 0.5
2016-Sep-25 17:33N 40°42' W 074°00'0 0.0
2016-Sep-25 16:33N 40°42' W 074°00'2 1.7
2016-Sep-25 15:33N 40°41' W 074°02'2 1.7
2016-Sep-25 14:33N 40°42' W 074°00'2 0.8
2016-Sep-25 12:33N 40°44' W 074°01'0 0.0
2016-Sep-25 04:34N 40°44' W 074°01'0 0.0
2016-Sep-25 00:34N 40°44' W 074°01'0 0.0
2016-Sep-24 22:33N 40°44' W 074°01'2 0.5
2016-Sep-24 19:33N 40°42' W 074°00'0 0.0
2016-Sep-24 18:33N 40°42' W 074°00'2 1.8
2016-Sep-24 17:33N 40°41' W 074°02'2 1.8
2016-Sep-24 16:33N 40°42' W 074°00'2 0.8
2016-Sep-24 14:33N 40°41' W 074°02'2 0.1
2016-Sep-23 19:33N 40°42' W 074°00'0 0.0
2016-Sep-23 17:33N 40°42' W 074°00'0 0.0
2016-Sep-23 16:33N 40°42' W 074°00'2 1.8
2016-Sep-23 15:33N 40°41' W 074°02'2 0.9
2016-Sep-23 13:33N 40°42' W 074°00'0 0.0
2016-Sep-22 20:33N 40°42' W 074°00'2 0.1
2016-Sep-21 22:31N 40°44' W 074°01'2 0.5
2016-Sep-21 19:33N 40°42' W 074°00'0 0.0
2016-Sep-21 16:33N 40°42' W 074°00'0 0.0
2016-Sep-20 17:34N 40°42' W 074°00'0 0.0
2016-Sep-20 14:33N 40°42' W 074°00'0 0.0
2016-Sep-20 13:34N 40°42' W 074°00'0 0.0
2016-Sep-19 19:33N 40°42' W 074°00'2 1.5
2016-Sep-19 18:33N 40°41' W 074°02'2 0.8
2016-Sep-19 16:33N 40°42' W 074°00'0 0.0
2016-Sep-19 14:33N 40°42' W 074°00'0 0.0
2016-Sep-19 13:33N 40°42' W 074°00'2 1.6
2016-Sep-19 12:33N 40°44' W 074°01'0 0.0
2016-Sep-19 00:33N 40°44' W 074°01'2 0.4
2016-Sep-18 19:33N 40°42' W 074°00'0 0.0
2016-Sep-18 15:34N 40°42' W 074°00'2 1.8
2016-Sep-18 14:34N 40°41' W 074°02'3 0.3
2016-Sep-18 02:34N 40°43' W 073°58'2 2.1
2016-Sep-18 01:33N 40°44' W 074°01'0 0.0
2016-Sep-18 00:33N 40°44' W 074°01'2 1.0
2016-Sep-17 22:33N 40°42' W 074°01'1 1.4
2016-Sep-17 21:34N 40°41' W 074°02'2 2.0
2016-Sep-17 20:33N 40°42' W 074°00'0 0.0
2016-Sep-17 19:16N 40°42' W 074°00'0 0.0
2016-Sep-17 13:33N 40°42' W 074°00'  
Track history (hours):
 
Tides and Currents Weather Stations Pressure Air Temp Water Temp Dewpoint Dewpoint Depression Visibility Wind Speed Wind Dir Waves Ship Positions

John James Audubon

Owner: Statue Cruises, Jersey City, NJ. More information available from US FCC via Universal Licensing System and Coast Guard Vessel Documentation Center.

Last reported at 2016-Sep-26 20:33 UTC. Time now 2016-Sep-27 05:21 UTC.
Position N 40°42' W 074°00'.

Length 37 m.

Type: Ship. MMSI: 367400770.

Date/timePositionNaut miles runAvg speedWind from/ knotsBaromVisibWave heightAir tempDewpointWater temp
2016-Sep-26 20:33N 40°42' W 074°00'0 0.0
2016-Sep-26 19:33N 40°42' W 074°00'1 0.3
2016-Sep-26 15:33N 40°41' W 074°02'1 0.7
2016-Sep-26 13:33N 40°42' W 074°00'2 0.1
2016-Sep-25 21:33N 40°41' W 074°02'2 0.5
2016-Sep-25 17:33N 40°42' W 074°00'0 0.0
2016-Sep-25 16:33N 40°42' W 074°00'2 1.7
2016-Sep-25 15:33N 40°41' W 074°02'2 1.7
2016-Sep-25 14:33N 40°42' W 074°00'2 0.8
2016-Sep-25 12:33N 40°44' W 074°01'0 0.0
2016-Sep-25 04:34N 40°44' W 074°01'0 0.0
2016-Sep-25 00:34N 40°44' W 074°01'0 0.0
2016-Sep-24 22:33N 40°44' W 074°01'2 0.5
2016-Sep-24 19:33N 40°42' W 074°00'0 0.0
2016-Sep-24 18:33N 40°42' W 074°00'2 1.8
2016-Sep-24 17:33N 40°41' W 074°02'2 1.8
2016-Sep-24 16:33N 40°42' W 074°00'2 0.8
2016-Sep-24 14:33N 40°41' W 074°02'2 0.1
2016-Sep-23 19:33N 40°42' W 074°00'0 0.0
2016-Sep-23 17:33N 40°42' W 074°00'0 0.0
2016-Sep-23 16:33N 40°42' W 074°00'2 1.8
2016-Sep-23 15:33N 40°41' W 074°02'2 0.9
2016-Sep-23 13:33N 40°42' W 074°00'0 0.0
2016-Sep-22 20:33N 40°42' W 074°00'2 0.1
2016-Sep-21 22:31N 40°44' W 074°01'2 0.5
2016-Sep-21 19:33N 40°42' W 074°00'0 0.0
2016-Sep-21 16:33N 40°42' W 074°00'0 0.0
2016-Sep-20 17:34N 40°42' W 074°00'0 0.0
2016-Sep-20 14:33N 40°42' W 074°00'0 0.0
2016-Sep-20 13:34N 40°42' W 074°00'0 0.0
2016-Sep-19 19:33N 40°42' W 074°00'2 1.5
2016-Sep-19 18:33N 40°41' W 074°02'2 0.8
2016-Sep-19 16:33N 40°42' W 074°00'0 0.0
2016-Sep-19 14:33N 40°42' W 074°00'0 0.0
2016-Sep-19 13:33N 40°42' W 074°00'2 1.6
2016-Sep-19 12:33N 40°44' W 074°01'0 0.0
2016-Sep-19 00:33N 40°44' W 074°01'2 0.4
2016-Sep-18 19:33N 40°42' W 074°00'0 0.0
2016-Sep-18 15:34N 40°42' W 074°00'2 1.8
2016-Sep-18 14:34N 40°41' W 074°02'3 0.3
2016-Sep-18 02:34N 40°43' W 073°58'2 2.1
2016-Sep-18 01:33N 40°44' W 074°01'0 0.0
2016-Sep-18 00:33N 40°44' W 074°01'2 1.0
2016-Sep-17 22:33N 40°42' W 074°01'1 1.4
2016-Sep-17 21:34N 40°41' W 074°02'2 2.0
2016-Sep-17 20:33N 40°42' W 074°00'0 0.0
2016-Sep-17 19:16N 40°42' W 074°00'0 0.0
2016-Sep-17 13:33N 40°42' W 074°00'  

Dump ship's entire track history